sensor_id;sensor_type;location;lat;lon;timestamp;temperature;humidity
7002;DHT22;3541;53.230;10.518;2022-08-25T00:01:46;23.10;99.90
7002;DHT22;3541;53.230;10.518;2022-08-25T00:04:14;23.00;99.90
7002;DHT22;3541;53.230;10.518;2022-08-25T00:06:43;23.00;99.90
7002;DHT22;3541;53.230;10.518;2022-08-25T00:09:15;22.90;99.90
7002;DHT22;3541;53.230;10.518;2022-08-25T00:11:42;22.90;99.90
7002;DHT22;3541;53.230;10.518;2022-08-25T00:14:12;22.90;99.90
7002;DHT22;3541;53.230;10.518;2022-08-25T00:16:40;22.80;99.90
7002;DHT22;3541;53.230;10.518;2022-08-25T00:19:10;22.80;99.90
7002;DHT22;3541;53.230;10.518;2022-08-25T00:21:37;22.80;99.90
7002;DHT22;3541;53.230;10.518;2022-08-25T00:24:05;22.80;99.90
7002;DHT22;3541;53.230;10.518;2022-08-25T00:26:37;22.80;99.90
7002;DHT22;3541;53.230;10.518;2022-08-25T00:29:04;22.80;99.90
7002;DHT22;3541;53.230;10.518;2022-08-25T00:31:30;22.80;99.90
7002;DHT22;3541;53.230;10.518;2022-08-25T00:33:57;22.70;99.90
7002;DHT22;3541;53.230;10.518;2022-08-25T00:36:24;22.70;99.90
7002;DHT22;3541;53.230;10.518;2022-08-25T00:38:53;22.70;99.90
7002;DHT22;3541;53.230;10.518;2022-08-25T00:41:22;22.60;99.90
7002;DHT22;3541;53.230;10.518;2022-08-25T00:43:52;22.70;99.90
7002;DHT22;3541;53.230;10.518;2022-08-25T00:46:22;22.60;99.90
7002;DHT22;3541;53.230;10.518;2022-08-25T00:48:52;22.60;99.90
7002;DHT22;3541;53.230;10.518;2022-08-25T00:51:27;22.50;99.90
7002;DHT22;3541;53.230;10.518;2022-08-25T00:53:55;22.50;99.90
7002;DHT22;3541;53.230;10.518;2022-08-25T00:56:22;22.50;99.90
7002;DHT22;3541;53.230;10.518;2022-08-25T00:58:51;22.50;99.90
7002;DHT22;3541;53.230;10.518;2022-08-25T01:01:18;22.50;99.90
7002;DHT22;3541;53.230;10.518;2022-08-25T01:03:45;22.50;99.90
7002;DHT22;3541;53.230;10.518;2022-08-25T01:06:13;22.50;99.90
7002;DHT22;3541;53.230;10.518;2022-08-25T01:08:40;22.50;99.90
7002;DHT22;3541;53.230;10.518;2022-08-25T01:11:08;22.40;99.90
7002;DHT22;3541;53.230;10.518;2022-08-25T01:13:38;22.40;99.90
7002;DHT22;3541;53.230;10.518;2022-08-25T01:16:07;22.30;99.90
7002;DHT22;3541;53.230;10.518;2022-08-25T01:18:48;22.20;99.90
7002;DHT22;3541;53.230;10.518;2022-08-25T01:21:18;22.20;99.90
7002;DHT22;3541;53.230;10.518;2022-08-25T01:23:45;22.30;99.90
7002;DHT22;3541;53.230;10.518;2022-08-25T01:26:15;22.30;99.90
7002;DHT22;3541;53.230;10.518;2022-08-25T01:28:44;22.30;99.90
7002;DHT22;3541;53.230;10.518;2022-08-25T01:31:25;22.20;99.90
7002;DHT22;3541;53.230;10.518;2022-08-25T01:33:54;22.10;99.90
7002;DHT22;3541;53.230;10.518;2022-08-25T01:36:22;22.00;99.90
7002;DHT22;3541;53.230;10.518;2022-08-25T01:38:49;22.00;99.90
7002;DHT22;3541;53.230;10.518;2022-08-25T01:41:20;22.00;99.90
7002;DHT22;3541;53.230;10.518;2022-08-25T01:43:51;22.00;99.90
7002;DHT22;3541;53.230;10.518;2022-08-25T01:46:17;22.00;99.90
7002;DHT22;3541;53.230;10.518;2022-08-25T01:48:44;22.00;99.90
7002;DHT22;3541;53.230;10.518;2022-08-25T01:51:11;22.00;99.90
7002;DHT22;3541;53.230;10.518;2022-08-25T01:53:41;21.90;99.90
7002;DHT22;3541;53.230;10.518;2022-08-25T01:56:09;22.00;99.90
7002;DHT22;3541;53.230;10.518;2022-08-25T01:58:39;21.90;99.90
7002;DHT22;3541;53.230;10.518;2022-08-25T02:01:09;21.90;99.90
7002;DHT22;3541;53.230;10.518;2022-08-25T02:03:37;21.90;99.90
7002;DHT22;3541;53.230;10.518;2022-08-25T02:06:05;21.80;99.90
7002;DHT22;3541;53.230;10.518;2022-08-25T02:08:32;21.80;99.90
7002;DHT22;3541;53.230;10.518;2022-08-25T02:11:00;21.80;99.90
7002;DHT22;3541;53.230;10.518;2022-08-25T02:13:27;21.70;99.90
7002;DHT22;3541;53.230;10.518;2022-08-25T02:15:56;21.80;99.90
7002;DHT22;3541;53.230;10.518;2022-08-25T02:18:23;21.70;99.90
7002;DHT22;3541;53.230;10.518;2022-08-25T02:20:50;21.60;99.90
7002;DHT22;3541;53.230;10.518;2022-08-25T02:23:17;21.60;99.90
7002;DHT22;3541;53.230;10.518;2022-08-25T02:25:43;21.60;99.90
7002;DHT22;3541;53.230;10.518;2022-08-25T02:28:12;21.70;99.90
7002;DHT22;3541;53.230;10.518;2022-08-25T02:30:40;21.60;99.90
7002;DHT22;3541;53.230;10.518;2022-08-25T02:33:07;21.60;99.90
7002;DHT22;3541;53.230;10.518;2022-08-25T02:35:34;21.50;99.90
7002;DHT22;3541;53.230;10.518;2022-08-25T02:38:02;21.50;99.90
7002;DHT22;3541;53.230;10.518;2022-08-25T02:40:29;21.40;99.90
7002;DHT22;3541;53.230;10.518;2022-08-25T02:42:55;21.50;99.90
7002;DHT22;3541;53.230;10.518;2022-08-25T02:45:23;21.50;99.90
7002;DHT22;3541;53.230;10.518;2022-08-25T02:47:50;21.50;99.90
7002;DHT22;3541;53.230;10.518;2022-08-25T02:50:18;21.50;99.90
7002;DHT22;3541;53.230;10.518;2022-08-25T02:52:45;21.40;99.90
7002;DHT22;3541;53.230;10.518;2022-08-25T02:55:13;21.50;99.90
7002;DHT22;3541;53.230;10.518;2022-08-25T02:57:39;21.50;99.90
7002;DHT22;3541;53.230;10.518;2022-08-25T03:00:10;21.40;99.90
7002;DHT22;3541;53.230;10.518;2022-08-25T03:02:38;21.40;99.90
7002;DHT22;3541;53.230;10.518;2022-08-25T03:05:06;21.40;99.90
7002;DHT22;3541;53.230;10.518;2022-08-25T03:07:33;21.40;99.90
7002;DHT22;3541;53.230;10.518;2022-08-25T03:10:04;21.40;99.90
7002;DHT22;3541;53.230;10.518;2022-08-25T03:12:31;21.40;99.90
7002;DHT22;3541;53.230;10.518;2022-08-25T03:14:58;21.40;99.90
7002;DHT22;3541;53.230;10.518;2022-08-25T03:17:24;21.30;99.90
7002;DHT22;3541;53.230;10.518;2022-08-25T03:19:52;21.20;99.90
7002;DHT22;3541;53.230;10.518;2022-08-25T03:22:19;21.20;99.90
7002;DHT22;3541;53.230;10.518;2022-08-25T03:24:45;21.20;99.90
7002;DHT22;3541;53.230;10.518;2022-08-25T03:27:12;21.20;99.90
7002;DHT22;3541;53.230;10.518;2022-08-25T03:29:38;21.20;99.90
7002;DHT22;3541;53.230;10.518;2022-08-25T03:32:05;21.20;99.90
7002;DHT22;3541;53.230;10.518;2022-08-25T03:34:32;21.20;99.90
7002;DHT22;3541;53.230;10.518;2022-08-25T03:37:00;21.20;99.90
7002;DHT22;3541;53.230;10.518;2022-08-25T03:39:27;21.20;99.90
7002;DHT22;3541;53.230;10.518;2022-08-25T03:41:54;21.10;99.90
7002;DHT22;3541;53.230;10.518;2022-08-25T03:44:21;21.10;99.90
7002;DHT22;3541;53.230;10.518;2022-08-25T03:46:49;21.10;99.90
7002;DHT22;3541;53.230;10.518;2022-08-25T03:49:19;21.00;99.90
7002;DHT22;3541;53.230;10.518;2022-08-25T03:51:48;21.10;99.90
7002;DHT22;3541;53.230;10.518;2022-08-25T03:54:19;21.10;99.90
7002;DHT22;3541;53.230;10.518;2022-08-25T03:56:46;21.10;99.90
7002;DHT22;3541;53.230;10.518;2022-08-25T03:59:13;21.00;99.90
7002;DHT22;3541;53.230;10.518;2022-08-25T04:01:41;21.00;99.90
7002;DHT22;3541;53.230;10.518;2022-08-25T04:04:10;21.00;99.90
7002;DHT22;3541;53.230;10.518;2022-08-25T04:06:37;21.00;99.90
7002;DHT22;3541;53.230;10.518;2022-08-25T04:09:04;20.90;99.90
7002;DHT22;3541;53.230;10.518;2022-08-25T04:11:32;20.90;99.90
7002;DHT22;3541;53.230;10.518;2022-08-25T04:13:59;20.90;99.90
7002;DHT22;3541;53.230;10.518;2022-08-25T04:16:28;20.80;99.90
7002;DHT22;3541;53.230;10.518;2022-08-25T04:18:57;20.80;99.90
7002;DHT22;3541;53.230;10.518;2022-08-25T04:21:25;20.90;99.90
7002;DHT22;3541;53.230;10.518;2022-08-25T04:23:53;20.90;99.90
7002;DHT22;3541;53.230;10.518;2022-08-25T04:26:23;20.80;99.90
7002;DHT22;3541;53.230;10.518;2022-08-25T04:28:52;20.80;99.90
7002;DHT22;3541;53.230;10.518;2022-08-25T04:31:21;20.80;99.90
7002;DHT22;3541;53.230;10.518;2022-08-25T04:33:47;20.70;99.90
7002;DHT22;3541;53.230;10.518;2022-08-25T04:36:15;20.70;99.90
7002;DHT22;3541;53.230;10.518;2022-08-25T04:38:43;20.70;99.90
7002;DHT22;3541;53.230;10.518;2022-08-25T04:41:12;20.70;99.90
7002;DHT22;3541;53.230;10.518;2022-08-25T04:43:41;20.70;99.90
7002;DHT22;3541;53.230;10.518;2022-08-25T04:46:12;20.60;99.90
7002;DHT22;3541;53.230;10.518;2022-08-25T04:48:39;20.60;99.90
7002;DHT22;3541;53.230;10.518;2022-08-25T04:51:08;20.70;99.90
7002;DHT22;3541;53.230;10.518;2022-08-25T04:53:35;20.60;99.90
7002;DHT22;3541;53.230;10.518;2022-08-25T04:56:04;20.70;99.90
7002;DHT22;3541;53.230;10.518;2022-08-25T04:58:31;20.60;99.90
7002;DHT22;3541;53.230;10.518;2022-08-25T05:01:01;20.50;99.90
7002;DHT22;3541;53.230;10.518;2022-08-25T05:03:29;20.50;99.90
7002;DHT22;3541;53.230;10.518;2022-08-25T05:05:56;20.50;99.90
7002;DHT22;3541;53.230;10.518;2022-08-25T05:08:23;20.50;99.90
7002;DHT22;3541;53.230;10.518;2022-08-25T05:10:50;20.50;99.90
7002;DHT22;3541;53.230;10.518;2022-08-25T05:13:19;20.50;99.90
7002;DHT22;3541;53.230;10.518;2022-08-25T05:15:51;20.50;99.90
7002;DHT22;3541;53.230;10.518;2022-08-25T05:18:19;20.50;99.90
7002;DHT22;3541;53.230;10.518;2022-08-25T05:20:48;20.40;99.90
7002;DHT22;3541;53.230;10.518;2022-08-25T05:23:15;20.50;99.90
7002;DHT22;3541;53.230;10.518;2022-08-25T05:25:42;20.40;99.90
7002;DHT22;3541;53.230;10.518;2022-08-25T05:28:09;20.40;99.90
7002;DHT22;3541;53.230;10.518;2022-08-25T05:30:37;20.30;99.90
7002;DHT22;3541;53.230;10.518;2022-08-25T05:33:04;20.30;99.90
7002;DHT22;3541;53.230;10.518;2022-08-25T05:35:30;20.40;99.90
7002;DHT22;3541;53.230;10.518;2022-08-25T05:37:58;20.40;99.90
7002;DHT22;3541;53.230;10.518;2022-08-25T05:40:25;20.30;99.90
7002;DHT22;3541;53.230;10.518;2022-08-25T05:42:52;20.40;99.90
7002;DHT22;3541;53.230;10.518;2022-08-25T05:45:20;20.30;99.90
7002;DHT22;3541;53.230;10.518;2022-08-25T05:47:46;20.40;99.90
7002;DHT22;3541;53.230;10.518;2022-08-25T05:50:14;20.40;99.90
7002;DHT22;3541;53.230;10.518;2022-08-25T05:52:41;20.40;99.90
7002;DHT22;3541;53.230;10.518;2022-08-25T05:55:10;20.30;99.90
7002;DHT22;3541;53.230;10.518;2022-08-25T05:57:36;20.40;99.90
7002;DHT22;3541;53.230;10.518;2022-08-25T06:00:05;20.40;99.90
7002;DHT22;3541;53.230;10.518;2022-08-25T06:02:32;20.40;99.90
7002;DHT22;3541;53.230;10.518;2022-08-25T06:05:10;20.40;99.90
7002;DHT22;3541;53.230;10.518;2022-08-25T06:07:37;20.50;99.90
7002;DHT22;3541;53.230;10.518;2022-08-25T06:10:04;20.50;99.90
7002;DHT22;3541;53.230;10.518;2022-08-25T06:12:33;20.40;99.90
7002;DHT22;3541;53.230;10.518;2022-08-25T06:15:01;20.30;99.90
7002;DHT22;3541;53.230;10.518;2022-08-25T06:17:28;20.40;99.90
7002;DHT22;3541;53.230;10.518;2022-08-25T06:19:54;20.50;99.90
7002;DHT22;3541;53.230;10.518;2022-08-25T06:22:21;20.40;99.90
7002;DHT22;3541;53.230;10.518;2022-08-25T06:24:49;20.40;99.90
7002;DHT22;3541;53.230;10.518;2022-08-25T06:27:17;20.50;99.90
7002;DHT22;3541;53.230;10.518;2022-08-25T06:29:45;20.60;99.90
7002;DHT22;3541;53.230;10.518;2022-08-25T06:32:12;20.50;99.90
7002;DHT22;3541;53.230;10.518;2022-08-25T06:34:38;20.40;99.90
7002;DHT22;3541;53.230;10.518;2022-08-25T06:37:05;20.30;99.90
7002;DHT22;3541;53.230;10.518;2022-08-25T06:39:31;20.40;99.90
7002;DHT22;3541;53.230;10.518;2022-08-25T06:41:58;20.40;99.90
7002;DHT22;3541;53.230;10.518;2022-08-25T06:44:25;20.40;99.90
7002;DHT22;3541;53.230;10.518;2022-08-25T06:46:54;20.40;99.90
7002;DHT22;3541;53.230;10.518;2022-08-25T06:49:20;20.40;99.90
7002;DHT22;3541;53.230;10.518;2022-08-25T06:51:47;20.50;99.90
7002;DHT22;3541;53.230;10.518;2022-08-25T06:54:15;20.50;99.90
7002;DHT22;3541;53.230;10.518;2022-08-25T06:56:41;20.50;99.90
7002;DHT22;3541;53.230;10.518;2022-08-25T06:59:09;20.40;99.90
7002;DHT22;3541;53.230;10.518;2022-08-25T07:01:36;20.50;99.90
7002;DHT22;3541;53.230;10.518;2022-08-25T07:04:05;20.60;99.90
7002;DHT22;3541;53.230;10.518;2022-08-25T07:06:33;20.50;99.90
7002;DHT22;3541;53.230;10.518;2022-08-25T07:09:02;20.50;99.90
7002;DHT22;3541;53.230;10.518;2022-08-25T07:11:29;20.60;99.90
7002;DHT22;3541;53.230;10.518;2022-08-25T07:13:59;20.60;99.90
7002;DHT22;3541;53.230;10.518;2022-08-25T07:16:26;20.60;99.90
7002;DHT22;3541;53.230;10.518;2022-08-25T07:18:53;20.70;99.90
7002;DHT22;3541;53.230;10.518;2022-08-25T07:21:22;20.70;99.90
7002;DHT22;3541;53.230;10.518;2022-08-25T07:23:49;20.60;99.90
7002;DHT22;3541;53.230;10.518;2022-08-25T07:26:18;20.60;99.90
7002;DHT22;3541;53.230;10.518;2022-08-25T07:28:45;20.70;99.90
7002;DHT22;3541;53.230;10.518;2022-08-25T07:31:11;20.80;99.90
7002;DHT22;3541;53.230;10.518;2022-08-25T07:33:38;20.80;99.90
7002;DHT22;3541;53.230;10.518;2022-08-25T07:36:27;20.80;99.90
7002;DHT22;3541;53.230;10.518;2022-08-25T07:38:53;20.90;99.90
7002;DHT22;3541;53.230;10.518;2022-08-25T07:41:19;20.90;99.90
7002;DHT22;3541;53.230;10.518;2022-08-25T07:43:46;20.90;99.90
7002;DHT22;3541;53.230;10.518;2022-08-25T07:46:13;20.90;99.90
7002;DHT22;3541;53.230;10.518;2022-08-25T07:48:39;20.90;99.90
7002;DHT22;3541;53.230;10.518;2022-08-25T07:51:07;20.90;99.90
7002;DHT22;3541;53.230;10.518;2022-08-25T07:53:35;20.90;99.90
7002;DHT22;3541;53.230;10.518;2022-08-25T07:56:07;21.00;99.90
7002;DHT22;3541;53.230;10.518;2022-08-25T07:58:34;21.00;99.90
7002;DHT22;3541;53.230;10.518;2022-08-25T08:01:00;21.10;99.90
7002;DHT22;3541;53.230;10.518;2022-08-25T08:03:27;21.10;99.90
7002;DHT22;3541;53.230;10.518;2022-08-25T08:05:54;21.10;99.90
7002;DHT22;3541;53.230;10.518;2022-08-25T08:08:21;21.10;99.90
7002;DHT22;3541;53.230;10.518;2022-08-25T08:10:49;21.20;99.90
7002;DHT22;3541;53.230;10.518;2022-08-25T08:13:17;21.20;99.90
7002;DHT22;3541;53.230;10.518;2022-08-25T08:15:44;21.20;99.90
7002;DHT22;3541;53.230;10.518;2022-08-25T08:18:11;21.20;99.90
7002;DHT22;3541;53.230;10.518;2022-08-25T08:20:37;21.20;99.90
7002;DHT22;3541;53.230;10.518;2022-08-25T08:23:04;21.30;99.90
7002;DHT22;3541;53.230;10.518;2022-08-25T08:25:31;21.20;99.90
7002;DHT22;3541;53.230;10.518;2022-08-25T08:27:59;21.40;99.90
7002;DHT22;3541;53.230;10.518;2022-08-25T08:30:25;21.50;99.90
7002;DHT22;3541;53.230;10.518;2022-08-25T08:32:52;21.50;99.90
7002;DHT22;3541;53.230;10.518;2022-08-25T08:35:19;21.40;99.90
7002;DHT22;3541;53.230;10.518;2022-08-25T08:37:45;21.50;99.90
7002;DHT22;3541;53.230;10.518;2022-08-25T08:40:14;21.50;99.90
7002;DHT22;3541;53.230;10.518;2022-08-25T08:42:53;21.40;99.90
7002;DHT22;3541;53.230;10.518;2022-08-25T08:45:28;21.40;99.90
7002;DHT22;3541;53.230;10.518;2022-08-25T08:48:14;21.40;99.90
7002;DHT22;3541;53.230;10.518;2022-08-25T08:50:48;21.50;99.90
7002;DHT22;3541;53.230;10.518;2022-08-25T08:53:21;21.30;99.90
7002;DHT22;3541;53.230;10.518;2022-08-25T08:55:51;21.40;99.90
7002;DHT22;3541;53.230;10.518;2022-08-25T08:58:23;21.40;99.90
7002;DHT22;3541;53.230;10.518;2022-08-25T09:00:54;21.40;99.90
7002;DHT22;3541;53.230;10.518;2022-08-25T09:03:28;21.50;99.90
7002;DHT22;3541;53.230;10.518;2022-08-25T09:06:01;21.60;99.90
7002;DHT22;3541;53.230;10.518;2022-08-25T09:08:28;21.70;99.90
7002;DHT22;3541;53.230;10.518;2022-08-25T09:10:59;21.70;99.90
7002;DHT22;3541;53.230;10.518;2022-08-25T09:13:35;21.80;99.90
7002;DHT22;3541;53.230;10.518;2022-08-25T09:16:13;21.80;99.90
7002;DHT22;3541;53.230;10.518;2022-08-25T09:19:11;21.80;99.90
7002;DHT22;3541;53.230;10.518;2022-08-25T09:21:47;21.90;99.90
7002;DHT22;3541;53.230;10.518;2022-08-25T09:24:30;21.90;99.90
7002;DHT22;3541;53.230;10.518;2022-08-25T09:27:07;22.00;99.90
7002;DHT22;3541;53.230;10.518;2022-08-25T09:29:48;22.10;99.90
7002;DHT22;3541;53.230;10.518;2022-08-25T09:32:19;22.20;99.90
7002;DHT22;3541;53.230;10.518;2022-08-25T09:34:47;22.30;99.90
7002;DHT22;3541;53.230;10.518;2022-08-25T09:37:14;22.30;99.90
7002;DHT22;3541;53.230;10.518;2022-08-25T09:39:40;22.50;99.90
7002;DHT22;3541;53.230;10.518;2022-08-25T09:42:07;22.80;99.90
7002;DHT22;3541;53.230;10.518;2022-08-25T09:44:39;22.90;99.90
7002;DHT22;3541;53.230;10.518;2022-08-25T09:47:20;22.90;99.90
7002;DHT22;3541;53.230;10.518;2022-08-25T09:49:49;22.80;99.90
7002;DHT22;3541;53.230;10.518;2022-08-25T09:52:24;22.90;99.90
7002;DHT22;3541;53.230;10.518;2022-08-25T09:54:53;23.00;99.90
7002;DHT22;3541;53.230;10.518;2022-08-25T09:57:29;23.20;99.90
7002;DHT22;3541;53.230;10.518;2022-08-25T09:59:58;23.40;99.90
7002;DHT22;3541;53.230;10.518;2022-08-25T10:02:35;23.50;99.90
7002;DHT22;3541;53.230;10.518;2022-08-25T10:05:17;23.50;99.90
7002;DHT22;3541;53.230;10.518;2022-08-25T10:07:49;23.70;99.90
7002;DHT22;3541;53.230;10.518;2022-08-25T10:10:21;23.80;99.90
7002;DHT22;3541;53.230;10.518;2022-08-25T10:12:48;23.90;99.90
7002;DHT22;3541;53.230;10.518;2022-08-25T10:15:16;24.00;99.90
7002;DHT22;3541;53.230;10.518;2022-08-25T10:17:44;24.10;99.90
7002;DHT22;3541;53.230;10.518;2022-08-25T10:20:14;24.20;99.90
7002;DHT22;3541;53.230;10.518;2022-08-25T10:22:43;24.30;99.90
7002;DHT22;3541;53.230;10.518;2022-08-25T10:25:11;24.40;99.90
7002;DHT22;3541;53.230;10.518;2022-08-25T10:27:43;24.50;99.90
7002;DHT22;3541;53.230;10.518;2022-08-25T10:30:19;24.50;99.90
7002;DHT22;3541;53.230;10.518;2022-08-25T10:33:01;24.60;99.90
7002;DHT22;3541;53.230;10.518;2022-08-25T10:35:39;24.80;99.90
7002;DHT22;3541;53.230;10.518;2022-08-25T10:38:12;24.90;99.90
7002;DHT22;3541;53.230;10.518;2022-08-25T10:40:47;25.00;99.90
7002;DHT22;3541;53.230;10.518;2022-08-25T10:43:23;25.10;99.90
7002;DHT22;3541;53.230;10.518;2022-08-25T10:46:03;25.20;99.90
7002;DHT22;3541;53.230;10.518;2022-08-25T10:48:46;25.30;99.90
7002;DHT22;3541;53.230;10.518;2022-08-25T10:51:38;25.40;99.90
7002;DHT22;3541;53.230;10.518;2022-08-25T10:54:21;25.50;99.90
7002;DHT22;3541;53.230;10.518;2022-08-25T10:56:56;25.50;99.90
7002;DHT22;3541;53.230;10.518;2022-08-25T10:59:44;25.40;99.90
7002;DHT22;3541;53.230;10.518;2022-08-25T11:02:45;25.30;99.90
7002;DHT22;3541;53.230;10.518;2022-08-25T11:05:24;25.20;99.90
7002;DHT22;3541;53.230;10.518;2022-08-25T11:07:56;25.30;99.90
7002;DHT22;3541;53.230;10.518;2022-08-25T11:10:29;25.40;99.90
7002;DHT22;3541;53.230;10.518;2022-08-25T11:13:00;25.50;99.90
7002;DHT22;3541;53.230;10.518;2022-08-25T11:15:31;25.40;99.90
7002;DHT22;3541;53.230;10.518;2022-08-25T11:18:05;25.30;99.90
7002;DHT22;3541;53.230;10.518;2022-08-25T11:20:39;25.40;99.90
7002;DHT22;3541;53.230;10.518;2022-08-25T11:23:10;25.60;99.90
7002;DHT22;3541;53.230;10.518;2022-08-25T11:25:41;25.60;99.90
7002;DHT22;3541;53.230;10.518;2022-08-25T11:28:11;25.70;99.90
7002;DHT22;3541;53.230;10.518;2022-08-25T11:30:40;25.70;99.90
7002;DHT22;3541;53.230;10.518;2022-08-25T11:33:11;25.70;99.90
7002;DHT22;3541;53.230;10.518;2022-08-25T11:35:42;25.90;99.90
7002;DHT22;3541;53.230;10.518;2022-08-25T11:38:23;26.00;99.90
7002;DHT22;3541;53.230;10.518;2022-08-25T11:40:59;26.20;99.90
7002;DHT22;3541;53.230;10.518;2022-08-25T11:43:39;26.30;99.90
7002;DHT22;3541;53.230;10.518;2022-08-25T11:46:19;26.40;99.90
7002;DHT22;3541;53.230;10.518;2022-08-25T11:48:58;26.60;99.90
7002;DHT22;3541;53.230;10.518;2022-08-25T11:51:30;26.80;99.90
7002;DHT22;3541;53.230;10.518;2022-08-25T11:54:20;26.90;99.90
7002;DHT22;3541;53.230;10.518;2022-08-25T11:56:55;27.10;99.90
7002;DHT22;3541;53.230;10.518;2022-08-25T12:00:00;27.20;99.90
7002;DHT22;3541;53.230;10.518;2022-08-25T12:02:32;27.40;99.90
7002;DHT22;3541;53.230;10.518;2022-08-25T12:05:00;27.40;99.90
7002;DHT22;3541;53.230;10.518;2022-08-25T12:10:18;27.60;99.90
7002;DHT22;3541;53.230;10.518;2022-08-25T12:12:59;27.50;99.90
7002;DHT22;3541;53.230;10.518;2022-08-25T12:15:28;27.40;99.90
7002;DHT22;3541;53.230;10.518;2022-08-25T12:18:11;27.50;99.90
7002;DHT22;3541;53.230;10.518;2022-08-25T12:21:09;27.60;99.90
7002;DHT22;3541;53.230;10.518;2022-08-25T12:23:38;27.80;99.90
7002;DHT22;3541;53.230;10.518;2022-08-25T12:26:10;27.80;99.90
7002;DHT22;3541;53.230;10.518;2022-08-25T12:28:50;27.80;99.90
7002;DHT22;3541;53.230;10.518;2022-08-25T12:31:45;27.50;99.90
7002;DHT22;3541;53.230;10.518;2022-08-25T12:34:34;27.30;99.90
7002;DHT22;3541;53.230;10.518;2022-08-25T12:37:06;27.30;99.90
7002;DHT22;3541;53.230;10.518;2022-08-25T12:39:45;27.40;99.90
7002;DHT22;3541;53.230;10.518;2022-08-25T12:42:23;27.30;99.90
7002;DHT22;3541;53.230;10.518;2022-08-25T12:45:31;27.20;99.90
7002;DHT22;3541;53.230;10.518;2022-08-25T12:51:01;27.10;99.90
7002;DHT22;3541;53.230;10.518;2022-08-25T12:53:33;27.50;99.90
7002;DHT22;3541;53.230;10.518;2022-08-25T12:56:05;27.80;99.90
7002;DHT22;3541;53.230;10.518;2022-08-25T12:58:35;28.00;99.90
7002;DHT22;3541;53.230;10.518;2022-08-25T13:01:18;28.20;99.90
7002;DHT22;3541;53.230;10.518;2022-08-25T13:04:22;28.30;99.90
7002;DHT22;3541;53.230;10.518;2022-08-25T13:07:00;28.40;99.90
7002;DHT22;3541;53.230;10.518;2022-08-25T13:10:03;28.50;99.90
7002;DHT22;3541;53.230;10.518;2022-08-25T13:12:40;28.50;99.90
7002;DHT22;3541;53.230;10.518;2022-08-25T13:15:12;28.40;99.90
7002;DHT22;3541;53.230;10.518;2022-08-25T13:17:39;28.40;99.90
7002;DHT22;3541;53.230;10.518;2022-08-25T13:20:14;28.40;99.90
7002;DHT22;3541;53.230;10.518;2022-08-25T13:22:43;28.50;99.90
7002;DHT22;3541;53.230;10.518;2022-08-25T13:25:17;28.70;99.90
7002;DHT22;3541;53.230;10.518;2022-08-25T13:27:50;28.90;99.90
7002;DHT22;3541;53.230;10.518;2022-08-25T13:30:27;29.10;99.90
7002;DHT22;3541;53.230;10.518;2022-08-25T13:32:54;29.10;99.90
7002;DHT22;3541;53.230;10.518;2022-08-25T13:35:23;28.90;99.90
7002;DHT22;3541;53.230;10.518;2022-08-25T13:37:50;28.60;99.90
7002;DHT22;3541;53.230;10.518;2022-08-25T13:40:22;28.40;99.90
7002;DHT22;3541;53.230;10.518;2022-08-25T13:42:52;28.40;99.90
7002;DHT22;3541;53.230;10.518;2022-08-25T13:45:20;28.40;99.90
7002;DHT22;3541;53.230;10.518;2022-08-25T13:47:48;28.50;99.90
7002;DHT22;3541;53.230;10.518;2022-08-25T13:50:19;28.80;99.90
7002;DHT22;3541;53.230;10.518;2022-08-25T13:52:48;28.70;99.90
7002;DHT22;3541;53.230;10.518;2022-08-25T13:55:21;28.50;99.90
7002;DHT22;3541;53.230;10.518;2022-08-25T13:57:50;28.50;99.90
7002;DHT22;3541;53.230;10.518;2022-08-25T14:00:29;28.40;99.90
7002;DHT22;3541;53.230;10.518;2022-08-25T14:02:57;28.50;99.90
7002;DHT22;3541;53.230;10.518;2022-08-25T14:05:35;28.80;99.90
7002;DHT22;3541;53.230;10.518;2022-08-25T14:08:03;28.90;99.90
7002;DHT22;3541;53.230;10.518;2022-08-25T14:10:35;28.60;99.90
7002;DHT22;3541;53.230;10.518;2022-08-25T14:13:13;28.30;99.90
7002;DHT22;3541;53.230;10.518;2022-08-25T14:15:41;28.00;99.90
7002;DHT22;3541;53.230;10.518;2022-08-25T14:18:15;27.90;99.90
7002;DHT22;3541;53.230;10.518;2022-08-25T14:20:45;27.80;99.90
7002;DHT22;3541;53.230;10.518;2022-08-25T14:23:16;27.90;99.90
7002;DHT22;3541;53.230;10.518;2022-08-25T14:25:43;28.30;99.90
7002;DHT22;3541;53.230;10.518;2022-08-25T14:28:14;28.80;99.90
7002;DHT22;3541;53.230;10.518;2022-08-25T14:30:43;29.20;99.90
7002;DHT22;3541;53.230;10.518;2022-08-25T14:33:12;29.30;99.90
7002;DHT22;3541;53.230;10.518;2022-08-25T14:35:40;29.00;99.90
7002;DHT22;3541;53.230;10.518;2022-08-25T14:38:09;29.00;99.90
7002;DHT22;3541;53.230;10.518;2022-08-25T14:40:36;29.40;99.90
7002;DHT22;3541;53.230;10.518;2022-08-25T14:43:04;29.50;99.90
7002;DHT22;3541;53.230;10.518;2022-08-25T14:45:34;29.70;99.90
7002;DHT22;3541;53.230;10.518;2022-08-25T14:48:04;29.70;99.90
7002;DHT22;3541;53.230;10.518;2022-08-25T14:50:32;29.80;99.90
7002;DHT22;3541;53.230;10.518;2022-08-25T14:53:00;30.00;99.90
7002;DHT22;3541;53.230;10.518;2022-08-25T14:55:27;30.10;99.90
7002;DHT22;3541;53.230;10.518;2022-08-25T14:57:53;30.20;99.90
7002;DHT22;3541;53.230;10.518;2022-08-25T15:00:20;30.40;99.90
7002;DHT22;3541;53.230;10.518;2022-08-25T15:02:49;30.40;99.90
7002;DHT22;3541;53.230;10.518;2022-08-25T15:05:20;30.30;99.90
7002;DHT22;3541;53.230;10.518;2022-08-25T15:07:49;30.00;99.90
7002;DHT22;3541;53.230;10.518;2022-08-25T15:10:45;29.60;99.90
7002;DHT22;3541;53.230;10.518;2022-08-25T15:13:11;29.40;99.90
7002;DHT22;3541;53.230;10.518;2022-08-25T15:15:42;29.20;99.90
7002;DHT22;3541;53.230;10.518;2022-08-25T15:18:11;29.10;99.90
7002;DHT22;3541;53.230;10.518;2022-08-25T15:20:37;29.10;99.90
7002;DHT22;3541;53.230;10.518;2022-08-25T15:23:04;29.30;99.90
7002;DHT22;3541;53.230;10.518;2022-08-25T15:25:30;29.40;99.90
7002;DHT22;3541;53.230;10.518;2022-08-25T15:27:57;29.30;99.90
7002;DHT22;3541;53.230;10.518;2022-08-25T15:30:24;29.20;99.90
7002;DHT22;3541;53.230;10.518;2022-08-25T15:32:51;29.00;99.90
7002;DHT22;3541;53.230;10.518;2022-08-25T15:35:19;28.90;99.90
7002;DHT22;3541;53.230;10.518;2022-08-25T15:37:45;28.80;99.90
7002;DHT22;3541;53.230;10.518;2022-08-25T15:40:13;28.90;99.90
7002;DHT22;3541;53.230;10.518;2022-08-25T15:42:40;29.10;99.90
7002;DHT22;3541;53.230;10.518;2022-08-25T15:45:08;29.20;99.90
7002;DHT22;3541;53.230;10.518;2022-08-25T15:47:35;29.40;99.90
7002;DHT22;3541;53.230;10.518;2022-08-25T15:50:04;29.40;99.90
7002;DHT22;3541;53.230;10.518;2022-08-25T15:52:33;29.50;99.90
7002;DHT22;3541;53.230;10.518;2022-08-25T15:54:59;29.60;99.90
7002;DHT22;3541;53.230;10.518;2022-08-25T15:57:26;29.60;99.90
7002;DHT22;3541;53.230;10.518;2022-08-25T15:59:53;29.70;99.90
7002;DHT22;3541;53.230;10.518;2022-08-25T16:02:20;29.80;99.90
7002;DHT22;3541;53.230;10.518;2022-08-25T16:04:47;29.90;99.90
7002;DHT22;3541;53.230;10.518;2022-08-25T16:07:15;29.80;99.90
7002;DHT22;3541;53.230;10.518;2022-08-25T16:09:43;29.80;99.90
7002;DHT22;3541;53.230;10.518;2022-08-25T16:12:09;30.00;99.90